createdAt,value
2023-01-26T00:00:06.019Z,-0.91
2023-01-26T00:02:34.103Z,-0.88
2023-01-26T00:05:00.690Z,-0.86
2023-01-26T00:07:28.755Z,-0.87
2023-01-26T00:09:55.411Z,-0.85
2023-01-26T00:12:22.034Z,-0.84
2023-01-26T00:14:48.726Z,-0.83
2023-01-26T00:17:16.974Z,-0.81
2023-01-26T00:19:44.954Z,-0.79
2023-01-26T00:22:11.836Z,-0.82
2023-01-26T00:24:38.499Z,-0.81
2023-01-26T00:27:05.117Z,-0.79
2023-01-26T00:29:31.724Z,-0.78
2023-01-26T00:31:58.425Z,-0.80
2023-01-26T00:34:24.977Z,-0.78
2023-01-26T00:36:52.985Z,-0.78
2023-01-26T00:39:19.818Z,-0.79
2023-01-26T00:41:46.733Z,-0.80
2023-01-26T00:44:15.352Z,-0.78
2023-01-26T00:46:42.023Z,-0.83
2023-01-26T00:49:09.069Z,-0.82
2023-01-26T00:51:35.736Z,-0.80
2023-01-26T00:54:05.599Z,-0.83
2023-01-26T00:56:32.215Z,-0.86
2023-01-26T00:58:59.153Z,-0.82
2023-01-26T01:01:25.955Z,-0.85
2023-01-26T01:03:52.574Z,-0.86
2023-01-26T01:06:19.269Z,-0.86
2023-01-26T01:08:46.054Z,-0.83
2023-01-26T01:11:14.434Z,-0.80
2023-01-26T01:13:41.086Z,-0.87
2023-01-26T01:16:08.853Z,-0.84
2023-01-26T01:18:35.780Z,-0.86
2023-01-26T01:21:06.291Z,-0.83
2023-01-26T01:23:32.990Z,-0.83
2023-01-26T01:26:01.034Z,-0.85
2023-01-26T01:28:29.527Z,-0.80
2023-01-26T01:30:56.258Z,-0.81
2023-01-26T01:33:23.492Z,-0.84
2023-01-26T01:35:57.324Z,-0.82
2023-01-26T01:38:24.610Z,-0.82
2023-01-26T01:40:51.605Z,-0.82
2023-01-26T01:43:18.551Z,-0.81
2023-01-26T01:45:47.948Z,-0.81
2023-01-26T01:48:20.537Z,-0.82
2023-01-26T01:50:50.118Z,-0.82
2023-01-26T01:53:21.978Z,-0.87
2023-01-26T01:55:49.493Z,-0.86
2023-01-26T01:58:16.105Z,-0.88
2023-01-26T02:00:42.958Z,-0.87
2023-01-26T02:03:11.322Z,-0.86
2023-01-26T02:05:47.503Z,-0.82
2023-01-26T02:08:17.079Z,-0.82
2023-01-26T02:10:47.271Z,-0.80
2023-01-26T02:13:15.682Z,-0.79
2023-01-26T02:15:43.082Z,-0.78
2023-01-26T02:18:11.576Z,-0.80
2023-01-26T02:20:45.185Z,-0.78
2023-01-26T02:23:27.209Z,-0.78
2023-01-26T02:26:03.729Z,-0.81
2023-01-26T02:28:30.448Z,-0.80
2023-01-26T02:30:57.570Z,-0.80
2023-01-26T02:33:26.477Z,-0.79
2023-01-26T02:35:56.701Z,-0.76
2023-01-26T02:38:26.645Z,-0.75
2023-01-26T02:40:55.504Z,-0.76
2023-01-26T02:43:26.707Z,-0.71
2023-01-26T02:45:54.115Z,-0.71
2023-01-26T02:48:21.593Z,-0.71
2023-01-26T02:50:48.295Z,-0.71
2023-01-26T02:53:14.917Z,-0.70
2023-01-26T02:55:41.795Z,-0.69
2023-01-26T02:58:08.352Z,-0.67
2023-01-26T03:00:37.106Z,-0.69
2023-01-26T03:03:11.860Z,-0.67
2023-01-26T03:05:38.539Z,-0.63
2023-01-26T03:08:05.895Z,-0.65
2023-01-26T03:10:36.261Z,-0.64
2023-01-26T03:13:03.255Z,-0.64
2023-01-26T03:15:29.998Z,-0.61
2023-01-26T03:18:06.079Z,-0.60
2023-01-26T03:20:32.776Z,-0.59
2023-01-26T03:22:59.414Z,-0.55
2023-01-26T03:25:26.911Z,-0.57
2023-01-26T03:27:53.694Z,-0.55
2023-01-26T03:30:22.440Z,-0.53
2023-01-26T03:32:50.054Z,-0.51
2023-01-26T03:35:18.267Z,-0.49
2023-01-26T03:37:44.939Z,-0.47
2023-01-26T03:40:19.978Z,-0.48
2023-01-26T03:42:46.620Z,-0.47
2023-01-26T03:45:13.447Z,-0.44
2023-01-26T03:47:42.372Z,-0.48
2023-01-26T03:50:10.678Z,-0.50
2023-01-26T03:52:39.391Z,-0.53
2023-01-26T03:55:06.910Z,-0.50
2023-01-26T03:57:33.656Z,-0.46
2023-01-26T04:00:00.259Z,-0.47
2023-01-26T04:02:27.694Z,-0.46
2023-01-26T04:04:54.638Z,-0.46
2023-01-26T04:07:25.821Z,-0.47
2023-01-26T04:09:53.953Z,-0.45
2023-01-26T04:12:20.604Z,-0.41
2023-01-26T04:14:58.524Z,-0.44
2023-01-26T04:17:26.743Z,-0.42
2023-01-26T04:19:53.628Z,-0.41
2023-01-26T04:22:20.946Z,-0.39
2023-01-26T04:24:48.170Z,-0.38
2023-01-26T04:27:16.195Z,-0.37
2023-01-26T04:29:43.999Z,-0.36
2023-01-26T04:32:10.678Z,-0.36
2023-01-26T04:34:37.626Z,-0.39
2023-01-26T04:37:11.545Z,-0.39
2023-01-26T04:39:45.536Z,-0.36
2023-01-26T04:42:12.356Z,-0.41
2023-01-26T04:44:40.629Z,-0.38
2023-01-26T04:47:07.297Z,-0.37
2023-01-26T04:49:34.172Z,-0.38
2023-01-26T04:52:00.903Z,-0.40
2023-01-26T04:54:28.567Z,-0.40
2023-01-26T04:56:55.254Z,-0.37
2023-01-26T04:59:22.165Z,-0.39
2023-01-26T05:01:50.216Z,-0.40
2023-01-26T05:04:17.068Z,-0.34
2023-01-26T05:06:45.885Z,-0.32
2023-01-26T05:09:12.635Z,-0.32
2023-01-26T05:11:41.501Z,-0.32
2023-01-26T05:14:20.613Z,-0.32
2023-01-26T05:17:20.848Z,-0.32
2023-01-26T05:20:13.914Z,-0.30
2023-01-26T05:22:57.014Z,-0.30
2023-01-26T05:25:32.598Z,-0.31
2023-01-26T05:28:04.197Z,-0.28
2023-01-26T05:30:31.085Z,-0.23
2023-01-26T05:33:04.594Z,-0.25
2023-01-26T05:35:31.920Z,-0.27
2023-01-26T05:37:59.046Z,-0.26
2023-01-26T05:40:26.797Z,-0.27
2023-01-26T05:42:53.956Z,-0.25
2023-01-26T05:45:40.419Z,-0.24
2023-01-26T05:48:08.479Z,-0.28
2023-01-26T05:50:35.234Z,-0.23
2023-01-26T05:53:16.669Z,-0.24
2023-01-26T05:55:43.841Z,-0.20
2023-01-26T05:58:12.335Z,-0.19
2023-01-26T06:00:39.770Z,-0.17
2023-01-26T06:03:12.968Z,-0.13
2023-01-26T06:05:40.797Z,-0.11
2023-01-26T06:08:14.809Z,-0.10
2023-01-26T06:10:58.333Z,-0.10
2023-01-26T06:13:38.322Z,-0.12
2023-01-26T06:16:17.151Z,-0.12
2023-01-26T06:18:48.886Z,-0.10
2023-01-26T06:21:15.751Z,-0.09
2023-01-26T06:23:43.519Z,-0.08
2023-01-26T06:26:11.141Z,-0.04
2023-01-26T06:28:38.351Z,-0.10
2023-01-26T06:31:07.549Z,-0.08
2023-01-26T06:33:35.594Z,-0.05
2023-01-26T06:36:04.934Z,-0.06
2023-01-26T06:38:32.012Z,-0.05
2023-01-26T06:41:00.335Z,-0.06
2023-01-26T06:43:27.039Z,-0.08
2023-01-26T06:45:55.808Z,-0.07
2023-01-26T06:48:22.509Z,-0.08
2023-01-26T06:50:51.308Z,-0.06
2023-01-26T06:53:29.932Z,-0.02
2023-01-26T06:56:16.925Z,-0.01
2023-01-26T06:58:55.648Z,-0.02
2023-01-26T07:01:50.769Z,-0.04
2023-01-26T07:04:17.586Z,-0.01
2023-01-26T07:06:44.438Z,0.00
2023-01-26T07:09:12.934Z,0.02
2023-01-26T07:11:39.835Z,0.04
2023-01-26T07:14:06.711Z,0.03
2023-01-26T07:16:33.921Z,0.06
2023-01-26T07:19:00.817Z,0.06
2023-01-26T07:21:27.874Z,0.07
2023-01-26T07:23:56.054Z,0.07
2023-01-26T07:26:25.668Z,0.09
2023-01-26T07:28:52.231Z,0.13
2023-01-26T07:31:19.524Z,0.10
2023-01-26T07:33:46.537Z,0.11
2023-01-26T07:36:13.400Z,0.14
2023-01-26T07:38:40.145Z,0.11
2023-01-26T07:41:09.100Z,0.14
2023-01-26T07:43:38.054Z,0.14
2023-01-26T07:46:08.829Z,0.14
2023-01-26T07:48:35.848Z,0.15
2023-01-26T07:51:04.089Z,0.20
2023-01-26T07:53:31.907Z,0.23
2023-01-26T07:56:09.242Z,0.26
2023-01-26T07:58:37.342Z,0.27
2023-01-26T08:01:08.854Z,0.28
2023-01-26T08:03:35.828Z,0.33
2023-01-26T08:06:02.481Z,0.35
2023-01-26T08:08:29.427Z,0.37
2023-01-26T08:10:57.466Z,0.40
2023-01-26T08:13:34.605Z,0.38
2023-01-26T08:16:06.212Z,0.38
2023-01-26T08:18:33.241Z,0.40
2023-01-26T08:20:59.820Z,0.43
2023-01-26T08:23:26.770Z,0.44
2023-01-26T08:25:53.509Z,0.45
2023-01-26T08:28:21.317Z,0.50
2023-01-26T08:30:48.057Z,0.51
2023-01-26T08:33:16.081Z,0.53
2023-01-26T08:35:42.696Z,0.54
2023-01-26T08:38:09.560Z,0.57
2023-01-26T08:40:36.179Z,0.58
2023-01-26T08:43:03.519Z,0.59
2023-01-26T08:45:33.548Z,0.59
2023-01-26T08:48:00.183Z,0.61
2023-01-26T08:50:28.220Z,0.63
2023-01-26T08:52:57.620Z,0.68
2023-01-26T08:55:24.471Z,0.67
2023-01-26T08:57:54.379Z,0.71
2023-01-26T09:00:22.913Z,0.71
2023-01-26T09:02:49.690Z,0.76
2023-01-26T09:05:16.657Z,0.76
2023-01-26T09:07:44.656Z,0.81
2023-01-26T09:10:11.986Z,0.79
2023-01-26T09:12:40.958Z,0.78
2023-01-26T09:15:09.136Z,0.81
2023-01-26T09:17:36.071Z,0.81
2023-01-26T09:20:03.470Z,0.80
2023-01-26T09:22:30.582Z,0.80
2023-01-26T09:24:58.526Z,0.85
2023-01-26T09:27:25.249Z,0.86
2023-01-26T09:29:52.058Z,0.90
2023-01-26T09:32:18.759Z,0.95
2023-01-26T09:34:46.099Z,0.92
2023-01-26T09:37:13.276Z,0.98
2023-01-26T09:39:39.925Z,0.99
2023-01-26T09:42:37.927Z,1.07
2023-01-26T09:45:26.713Z,1.09
2023-01-26T09:48:09.369Z,1.10
2023-01-26T09:50:41.703Z,1.10
2023-01-26T09:53:15.306Z,1.09
2023-01-26T09:55:43.493Z,1.08
2023-01-26T09:58:17.642Z,1.11
2023-01-26T10:00:47.527Z,1.16
2023-01-26T10:03:23.472Z,1.12
2023-01-26T10:05:56.568Z,1.19
2023-01-26T10:08:43.886Z,1.19
2023-01-26T10:11:18.303Z,1.22
2023-01-26T10:13:51.287Z,1.23
2023-01-26T10:16:18.121Z,1.20
2023-01-26T10:18:51.818Z,1.21
2023-01-26T10:21:21.010Z,1.19
2023-01-26T10:23:48.900Z,1.19
2023-01-26T10:26:18.183Z,1.25
2023-01-26T10:28:45.814Z,1.30
2023-01-26T10:31:16.611Z,1.34
2023-01-26T10:33:49.799Z,1.38
2023-01-26T10:36:16.551Z,1.35
2023-01-26T10:38:44.329Z,1.39
2023-01-26T10:41:24.704Z,1.42
2023-01-26T10:43:53.806Z,1.40
2023-01-26T10:46:27.855Z,1.45
2023-01-26T10:48:55.985Z,1.43
2023-01-26T10:51:28.917Z,1.45
2023-01-26T10:54:21.645Z,1.49
2023-01-26T10:56:51.702Z,1.52
2023-01-26T10:59:27.088Z,1.55
2023-01-26T11:01:57.734Z,1.56
2023-01-26T11:04:25.700Z,1.57
2023-01-26T11:06:52.643Z,1.57
2023-01-26T11:09:24.602Z,1.59
2023-01-26T11:12:04.778Z,1.64
2023-01-26T11:14:32.400Z,1.61
2023-01-26T11:17:14.556Z,1.64
2023-01-26T11:19:56.389Z,1.64
2023-01-26T11:22:30.592Z,1.64
2023-01-26T11:25:04.573Z,1.66
2023-01-26T11:27:40.225Z,1.66
2023-01-26T11:30:24.519Z,1.68
2023-01-26T11:32:59.023Z,1.66
2023-01-26T11:35:32.068Z,1.66
2023-01-26T11:38:12.801Z,1.64
2023-01-26T11:40:47.101Z,1.66
2023-01-26T11:43:45.707Z,1.68
2023-01-26T11:46:33.812Z,1.74
2023-01-26T11:49:15.388Z,1.81
2023-01-26T11:51:55.914Z,1.87
2023-01-26T11:54:38.337Z,1.90
2023-01-26T11:57:18.226Z,1.92
2023-01-26T11:59:48.858Z,1.88
2023-01-26T12:02:28.158Z,1.92
2023-01-26T12:04:58.447Z,1.97
2023-01-26T12:07:30.218Z,2.00
2023-01-26T12:10:00.330Z,2.15
2023-01-26T12:12:34.123Z,2.17
2023-01-26T12:15:05.839Z,2.18
2023-01-26T12:17:42.083Z,2.23
2023-01-26T12:20:24.046Z,2.25
2023-01-26T12:22:58.192Z,2.30
2023-01-26T12:25:31.396Z,2.29
2023-01-26T12:28:05.535Z,2.29
2023-01-26T12:30:39.925Z,2.33
2023-01-26T12:33:08.984Z,2.34
2023-01-26T12:35:53.566Z,2.41
2023-01-26T12:38:28.661Z,2.41
2023-01-26T12:41:05.752Z,2.49
2023-01-26T12:43:50.447Z,2.54
2023-01-26T12:46:17.496Z,2.60
2023-01-26T12:48:48.550Z,2.69
2023-01-26T12:51:22.422Z,2.76
2023-01-26T12:53:56.276Z,2.85
2023-01-26T12:56:27.890Z,2.96
2023-01-26T12:58:57.079Z,3.06
2023-01-26T13:01:27.146Z,3.10
2023-01-26T13:03:56.985Z,3.19
2023-01-26T13:06:26.850Z,3.27
2023-01-26T13:09:01.551Z,3.35
2023-01-26T13:11:49.039Z,3.36
2023-01-26T13:14:27.840Z,3.43
2023-01-26T13:16:55.052Z,3.47
2023-01-26T13:19:52.041Z,3.56
2023-01-26T13:22:40.333Z,3.59
2023-01-26T13:25:16.175Z,3.66
2023-01-26T13:27:46.286Z,3.73
2023-01-26T13:30:33.081Z,3.77
2023-01-26T13:33:12.887Z,3.79
2023-01-26T13:35:40.348Z,3.83
2023-01-26T13:38:14.778Z,3.90
2023-01-26T13:40:44.431Z,3.89
2023-01-26T13:43:26.206Z,3.92
2023-01-26T13:45:58.673Z,3.97
2023-01-26T13:48:36.390Z,3.98
2023-01-26T13:51:04.989Z,4.05
2023-01-26T13:53:38.178Z,4.08
2023-01-26T13:56:07.127Z,4.09
2023-01-26T13:58:34.393Z,4.15
2023-01-26T14:01:03.218Z,4.21
2023-01-26T14:03:30.584Z,4.22
2023-01-26T14:06:00.533Z,4.27
2023-01-26T14:08:27.706Z,4.35
2023-01-26T14:10:59.182Z,4.42
2023-01-26T14:13:32.651Z,4.43
2023-01-26T14:16:01.401Z,4.44
2023-01-26T14:18:28.274Z,4.48
2023-01-26T14:20:59.739Z,4.50
2023-01-26T14:23:29.032Z,4.54
2023-01-26T14:26:02.195Z,4.63
2023-01-26T14:28:33.319Z,4.65
2023-01-26T14:31:03.828Z,4.68
2023-01-26T14:33:31.049Z,4.69
2023-01-26T14:36:01.736Z,4.72
2023-01-26T14:38:30.043Z,4.69
2023-01-26T14:41:00.785Z,4.71
2023-01-26T14:43:27.712Z,4.71
2023-01-26T14:45:59.865Z,4.74
2023-01-26T14:48:31.646Z,4.75
2023-01-26T14:50:59.459Z,4.76
2023-01-26T14:53:27.578Z,4.76
2023-01-26T14:55:54.347Z,4.76
2023-01-26T14:58:27.462Z,4.78
2023-01-26T15:00:56.474Z,4.78
2023-01-26T15:03:26.287Z,4.79
2023-01-26T15:06:16.771Z,4.78
2023-01-26T15:08:54.743Z,4.79
2023-01-26T15:11:27.253Z,4.78
2023-01-26T15:13:55.837Z,4.74
2023-01-26T15:16:24.068Z,4.74
2023-01-26T15:18:58.804Z,4.74
2023-01-26T15:21:31.827Z,4.74
2023-01-26T15:23:58.668Z,4.73
2023-01-26T15:26:28.267Z,4.73
2023-01-26T15:28:58.526Z,4.71
2023-01-26T15:31:30.254Z,4.68
2023-01-26T15:33:57.182Z,4.67
2023-01-26T15:36:26.711Z,4.64
2023-01-26T15:38:58.778Z,4.64
2023-01-26T15:41:25.846Z,4.62
2023-01-26T15:43:52.469Z,4.59
2023-01-26T15:46:20.676Z,4.57
2023-01-26T15:48:47.957Z,4.59
2023-01-26T15:51:15.430Z,4.53
2023-01-26T15:53:42.360Z,4.51
2023-01-26T15:56:12.892Z,4.50
2023-01-26T15:58:39.910Z,4.47
2023-01-26T16:01:06.801Z,4.48
2023-01-26T16:03:34.926Z,4.41
2023-01-26T16:06:02.183Z,4.37
2023-01-26T16:08:28.821Z,4.46
2023-01-26T16:10:55.451Z,4.42
2023-01-26T16:13:22.323Z,4.41
2023-01-26T16:15:50.626Z,4.26
2023-01-26T16:18:18.616Z,4.22
2023-01-26T16:20:49.049Z,4.20
2023-01-26T16:23:18.950Z,4.11
2023-01-26T16:25:46.468Z,4.06
2023-01-26T16:28:13.670Z,4.03
2023-01-26T16:30:41.859Z,4.06
2023-01-26T16:33:11.301Z,4.05
2023-01-26T16:35:38.220Z,4.03
2023-01-26T16:38:06.185Z,4.03
2023-01-26T16:40:33.527Z,3.95
2023-01-26T16:43:01.716Z,3.97
2023-01-26T16:45:28.409Z,3.98
2023-01-26T16:47:57.157Z,3.96
2023-01-26T16:50:24.869Z,3.96
2023-01-26T16:52:52.496Z,4.01
2023-01-26T16:55:20.723Z,4.04
2023-01-26T16:57:47.679Z,4.02
2023-01-26T17:00:16.655Z,4.04
2023-01-26T17:02:46.484Z,4.12
2023-01-26T17:05:14.251Z,4.11
2023-01-26T17:07:40.881Z,4.14
2023-01-26T17:10:08.333Z,4.15
2023-01-26T17:12:36.479Z,4.21
2023-01-26T17:15:03.422Z,4.23
2023-01-26T17:17:30.044Z,4.25
2023-01-26T17:20:01.488Z,4.27
2023-01-26T17:22:35.896Z,4.26
2023-01-26T17:25:05.366Z,4.29
2023-01-26T17:27:32.267Z,4.29
2023-01-26T17:30:00.405Z,4.27
2023-01-26T17:32:27.024Z,4.25
2023-01-26T17:34:54.622Z,4.31
2023-01-26T17:37:22.591Z,4.33
2023-01-26T17:39:49.479Z,4.35
2023-01-26T17:42:16.128Z,4.33
2023-01-26T17:44:43.370Z,4.27
2023-01-26T17:47:11.982Z,4.32
2023-01-26T17:49:38.724Z,4.36
2023-01-26T17:52:06.527Z,4.36
2023-01-26T17:54:34.675Z,4.35
2023-01-26T17:57:04.271Z,4.37
2023-01-26T17:59:33.217Z,4.40
2023-01-26T18:01:59.986Z,4.43
2023-01-26T18:04:29.265Z,4.46
2023-01-26T18:06:57.818Z,4.54
2023-01-26T18:09:24.459Z,4.56
2023-01-26T18:11:53.407Z,4.60
2023-01-26T18:14:20.283Z,4.64
2023-01-26T18:16:47.987Z,4.66
2023-01-26T18:19:14.721Z,4.71
2023-01-26T18:21:42.871Z,4.73
2023-01-26T18:24:10.083Z,4.74
2023-01-26T18:26:38.006Z,4.77
2023-01-26T18:29:05.975Z,4.79
2023-01-26T18:31:34.983Z,4.80
2023-01-26T18:34:02.602Z,4.81
2023-01-26T18:36:29.964Z,4.83
2023-01-26T18:39:00.301Z,4.82
2023-01-26T18:41:28.709Z,4.83
2023-01-26T18:43:56.759Z,4.81
2023-01-26T18:46:24.191Z,4.85
2023-01-26T18:48:52.849Z,4.86
2023-01-26T18:51:19.720Z,4.85
2023-01-26T18:53:46.398Z,4.88
2023-01-26T18:56:16.245Z,4.90
2023-01-26T18:58:43.174Z,4.95
2023-01-26T19:01:12.300Z,4.96
2023-01-26T19:03:40.068Z,4.98
2023-01-26T19:06:07.399Z,4.98
2023-01-26T19:08:34.143Z,4.98
2023-01-26T19:11:04.420Z,5.01
2023-01-26T19:13:32.431Z,5.03
2023-01-26T19:15:59.560Z,5.05
2023-01-26T19:18:30.236Z,5.03
2023-01-26T19:20:58.100Z,5.03
2023-01-26T19:23:25.146Z,5.01
2023-01-26T19:25:53.602Z,5.02
2023-01-26T19:28:20.759Z,5.03
2023-01-26T19:30:49.572Z,5.02
2023-01-26T19:33:16.527Z,5.03
2023-01-26T19:35:43.331Z,5.01
2023-01-26T19:38:13.112Z,5.03
2023-01-26T19:40:39.921Z,5.07
2023-01-26T19:43:06.573Z,5.07
2023-01-26T19:45:33.630Z,5.04
2023-01-26T19:48:02.354Z,5.04
2023-01-26T19:50:29.299Z,5.03
2023-01-26T19:52:56.101Z,5.03
2023-01-26T19:55:22.896Z,5.02
2023-01-26T19:57:49.687Z,5.03
2023-01-26T20:00:17.255Z,5.00
2023-01-26T20:02:44.323Z,4.97
2023-01-26T20:05:12.674Z,4.98
2023-01-26T20:07:39.468Z,4.99
2023-01-26T20:10:07.041Z,4.97
2023-01-26T20:12:33.783Z,4.99
2023-01-26T20:15:00.946Z,4.98
2023-01-26T20:17:28.029Z,4.99
2023-01-26T20:19:54.690Z,5.00
2023-01-26T20:22:23.444Z,5.03
2023-01-26T20:24:50.319Z,5.02
2023-01-26T20:27:17.600Z,5.05
2023-01-26T20:29:44.398Z,5.01
2023-01-26T20:32:11.534Z,5.00
2023-01-26T20:34:40.985Z,5.02
2023-01-26T20:37:08.720Z,5.03
2023-01-26T20:39:36.751Z,5.01
2023-01-26T20:42:03.703Z,5.02
2023-01-26T20:44:34.128Z,5.01
2023-01-26T20:47:01.180Z,5.00
2023-01-26T20:49:29.405Z,4.98
2023-01-26T20:51:56.114Z,4.99
2023-01-26T20:54:22.976Z,5.01
2023-01-26T20:56:51.409Z,5.01
2023-01-26T20:59:18.466Z,5.01
2023-01-26T21:01:45.320Z,5.00
2023-01-26T21:04:15.261Z,5.00
2023-01-26T21:06:42.919Z,4.99
2023-01-26T21:09:12.857Z,4.99
2023-01-26T21:11:39.883Z,4.98
2023-01-26T21:14:11.718Z,4.99
2023-01-26T21:16:38.441Z,4.99
2023-01-26T21:19:05.207Z,4.98
2023-01-26T21:21:32.446Z,5.00
2023-01-26T21:23:59.385Z,4.98
2023-01-26T21:26:26.877Z,4.98
2023-01-26T21:28:55.517Z,5.00
2023-01-26T21:31:28.287Z,5.01
2023-01-26T21:33:55.641Z,5.02
2023-01-26T21:36:23.861Z,5.01
2023-01-26T21:38:52.489Z,5.00
2023-01-26T21:41:21.499Z,5.00
2023-01-26T21:43:48.295Z,5.00
2023-01-26T21:46:15.059Z,5.00
2023-01-26T21:48:43.006Z,4.98
2023-01-26T21:51:09.652Z,4.99
2023-01-26T21:53:36.385Z,4.98
2023-01-26T21:56:02.938Z,4.97
2023-01-26T21:58:29.752Z,4.96
2023-01-26T22:01:05.145Z,4.96
2023-01-26T22:03:31.726Z,4.92
2023-01-26T22:05:59.975Z,4.94
2023-01-26T22:08:26.655Z,4.91
2023-01-26T22:10:53.763Z,4.89
2023-01-26T22:13:20.514Z,4.89
2023-01-26T22:15:47.234Z,4.88
2023-01-26T22:18:14.178Z,4.88
2023-01-26T22:20:42.330Z,4.87
2023-01-26T22:23:10.700Z,4.85
2023-01-26T22:25:38.050Z,4.85
2023-01-26T22:28:05.241Z,4.83
2023-01-26T22:30:31.940Z,4.83
2023-01-26T22:32:58.581Z,4.83
2023-01-26T22:35:25.358Z,4.81
2023-01-26T22:37:51.988Z,4.78
2023-01-26T22:40:20.296Z,4.77
2023-01-26T22:42:46.862Z,4.74
2023-01-26T22:45:13.882Z,4.75
2023-01-26T22:47:40.600Z,4.76
2023-01-26T22:50:08.152Z,4.69
2023-01-26T22:52:35.176Z,4.68
2023-01-26T22:55:01.964Z,4.71
2023-01-26T22:57:29.937Z,4.73
2023-01-26T22:59:56.801Z,4.72
2023-01-26T23:02:23.440Z,4.75
2023-01-26T23:04:50.041Z,4.74
2023-01-26T23:07:16.684Z,4.75
2023-01-26T23:09:43.304Z,4.71
2023-01-26T23:12:09.944Z,4.68
2023-01-26T23:14:38.223Z,4.67
2023-01-26T23:17:04.864Z,4.65
2023-01-26T23:19:31.553Z,4.64
2023-01-26T23:21:58.255Z,4.60
2023-01-26T23:24:25.179Z,4.60
2023-01-26T23:26:51.868Z,4.59
2023-01-26T23:29:18.573Z,4.55
2023-01-26T23:31:47.681Z,4.54
2023-01-26T23:34:14.294Z,4.56
2023-01-26T23:36:41.082Z,4.56
2023-01-26T23:39:07.704Z,4.55
2023-01-26T23:41:34.315Z,4.53
2023-01-26T23:44:01.031Z,4.53
2023-01-26T23:46:27.934Z,4.53
2023-01-26T23:48:56.824Z,4.53
2023-01-26T23:51:23.616Z,4.48
2023-01-26T23:53:51.367Z,4.52
2023-01-26T23:56:18.136Z,4.47
2023-01-26T23:58:44.994Z,4.45
